sensor_id;sensor_type;location;lat;lon;timestamp;temperature;humidity
4564;DHT22;2294;51.818;8.484;2022-09-14T00:01:15;16.60;99.90
4564;DHT22;2294;51.818;8.484;2022-09-14T00:03:42;16.60;99.90
4564;DHT22;2294;51.818;8.484;2022-09-14T00:06:12;16.40;99.90
4564;DHT22;2294;51.818;8.484;2022-09-14T00:08:40;16.60;99.90
4564;DHT22;2294;51.818;8.484;2022-09-14T00:11:08;16.60;99.90
4564;DHT22;2294;51.818;8.484;2022-09-14T00:13:37;16.40;99.90
4564;DHT22;2294;51.818;8.484;2022-09-14T00:16:09;16.40;99.90
4564;DHT22;2294;51.818;8.484;2022-09-14T00:18:37;16.40;99.90
4564;DHT22;2294;51.818;8.484;2022-09-14T00:21:06;16.60;99.90
4564;DHT22;2294;51.818;8.484;2022-09-14T00:23:36;16.60;99.90
4564;DHT22;2294;51.818;8.484;2022-09-14T00:26:04;15.50;99.90
4564;DHT22;2294;51.818;8.484;2022-09-14T00:28:36;16.40;99.90
4564;DHT22;2294;51.818;8.484;2022-09-14T00:31:03;16.30;99.90
4564;DHT22;2294;51.818;8.484;2022-09-14T00:33:30;16.40;99.90
4564;DHT22;2294;51.818;8.484;2022-09-14T00:36:06;16.50;99.90
4564;DHT22;2294;51.818;8.484;2022-09-14T00:38:35;16.40;99.90
4564;DHT22;2294;51.818;8.484;2022-09-14T00:41:03;16.30;99.90
4564;DHT22;2294;51.818;8.484;2022-09-14T00:43:31;16.30;99.90
4564;DHT22;2294;51.818;8.484;2022-09-14T00:45:59;16.40;99.90
4564;DHT22;2294;51.818;8.484;2022-09-14T00:48:28;16.40;99.90
4564;DHT22;2294;51.818;8.484;2022-09-14T00:50:55;16.20;99.90
4564;DHT22;2294;51.818;8.484;2022-09-14T00:53:22;16.20;99.90
4564;DHT22;2294;51.818;8.484;2022-09-14T00:55:50;16.30;99.90
4564;DHT22;2294;51.818;8.484;2022-09-14T00:58:19;16.40;99.90
4564;DHT22;2294;51.818;8.484;2022-09-14T01:00:46;16.30;99.90
4564;DHT22;2294;51.818;8.484;2022-09-14T01:03:13;16.30;99.90
4564;DHT22;2294;51.818;8.484;2022-09-14T01:05:54;16.20;99.90
4564;DHT22;2294;51.818;8.484;2022-09-14T01:08:37;16.20;99.90
4564;DHT22;2294;51.818;8.484;2022-09-14T01:11:20;16.20;99.90
4564;DHT22;2294;51.818;8.484;2022-09-14T01:13:55;16.30;99.90
4564;DHT22;2294;51.818;8.484;2022-09-14T01:16:29;16.30;99.90
4564;DHT22;2294;51.818;8.484;2022-09-14T01:19:03;16.20;99.90
4564;DHT22;2294;51.818;8.484;2022-09-14T01:21:32;16.20;99.90
4564;DHT22;2294;51.818;8.484;2022-09-14T01:24:05;16.20;99.90
4564;DHT22;2294;51.818;8.484;2022-09-14T01:29:51;16.00;99.90
4564;DHT22;2294;51.818;8.484;2022-09-14T01:32:24;16.10;99.90
4564;DHT22;2294;51.818;8.484;2022-09-14T01:34:58;16.10;99.90
4564;DHT22;2294;51.818;8.484;2022-09-14T01:37:31;16.10;99.90
4564;DHT22;2294;51.818;8.484;2022-09-14T01:40:03;16.10;99.90
4564;DHT22;2294;51.818;8.484;2022-09-14T01:42:32;16.00;99.90
4564;DHT22;2294;51.818;8.484;2022-09-14T01:45:07;16.10;99.90
4564;DHT22;2294;51.818;8.484;2022-09-14T01:47:37;16.10;99.90
4564;DHT22;2294;51.818;8.484;2022-09-14T01:50:08;16.10;99.90
4564;DHT22;2294;51.818;8.484;2022-09-14T01:52:41;16.10;99.90
4564;DHT22;2294;51.818;8.484;2022-09-14T01:55:12;16.10;99.90
4564;DHT22;2294;51.818;8.484;2022-09-14T01:57:42;16.00;99.90
4564;DHT22;2294;51.818;8.484;2022-09-14T02:00:14;16.00;99.90
4564;DHT22;2294;51.818;8.484;2022-09-14T02:02:45;16.10;99.90
4564;DHT22;2294;51.818;8.484;2022-09-14T02:05:17;16.10;99.90
4564;DHT22;2294;51.818;8.484;2022-09-14T02:07:45;16.00;99.90
4564;DHT22;2294;51.818;8.484;2022-09-14T02:10:14;15.80;99.90
4564;DHT22;2294;51.818;8.484;2022-09-14T02:12:42;15.80;99.90
4564;DHT22;2294;51.818;8.484;2022-09-14T02:15:12;15.90;99.90
4564;DHT22;2294;51.818;8.484;2022-09-14T02:17:40;15.90;99.90
4564;DHT22;2294;51.818;8.484;2022-09-14T02:20:10;15.90;99.90
4564;DHT22;2294;51.818;8.484;2022-09-14T02:22:39;15.90;99.90
4564;DHT22;2294;51.818;8.484;2022-09-14T02:25:07;15.90;99.90
4564;DHT22;2294;51.818;8.484;2022-09-14T02:27:34;15.80;99.90
4564;DHT22;2294;51.818;8.484;2022-09-14T02:30:01;15.70;99.90
4564;DHT22;2294;51.818;8.484;2022-09-14T02:32:34;15.70;99.90
4564;DHT22;2294;51.818;8.484;2022-09-14T02:35:07;15.60;99.90
4564;DHT22;2294;51.818;8.484;2022-09-14T02:37:44;15.70;99.90
4564;DHT22;2294;51.818;8.484;2022-09-14T02:40:19;15.70;99.90
4564;DHT22;2294;51.818;8.484;2022-09-14T02:42:57;15.60;99.90
4564;DHT22;2294;51.818;8.484;2022-09-14T02:45:29;15.60;99.90
4564;DHT22;2294;51.818;8.484;2022-09-14T02:48:03;15.60;99.90
4564;DHT22;2294;51.818;8.484;2022-09-14T02:50:38;15.50;99.90
4564;DHT22;2294;51.818;8.484;2022-09-14T02:53:11;15.30;99.90
4564;DHT22;2294;51.818;8.484;2022-09-14T02:55:43;15.30;99.90
4564;DHT22;2294;51.818;8.484;2022-09-14T02:58:13;15.30;99.90
4564;DHT22;2294;51.818;8.484;2022-09-14T03:00:41;15.30;99.90
4564;DHT22;2294;51.818;8.484;2022-09-14T03:03:12;15.40;99.90
4564;DHT22;2294;51.818;8.484;2022-09-14T03:05:40;15.40;99.90
4564;DHT22;2294;51.818;8.484;2022-09-14T03:08:07;15.30;99.90
4564;DHT22;2294;51.818;8.484;2022-09-14T03:10:35;15.30;99.90
4564;DHT22;2294;51.818;8.484;2022-09-14T03:13:02;15.30;99.90
4564;DHT22;2294;51.818;8.484;2022-09-14T03:15:29;15.30;99.90
4564;DHT22;2294;51.818;8.484;2022-09-14T03:17:56;15.50;99.90
4564;DHT22;2294;51.818;8.484;2022-09-14T03:20:27;15.40;99.90
4564;DHT22;2294;51.818;8.484;2022-09-14T03:22:54;15.30;99.90
4564;DHT22;2294;51.818;8.484;2022-09-14T03:25:23;15.30;99.90
4564;DHT22;2294;51.818;8.484;2022-09-14T03:27:53;15.30;99.90
4564;DHT22;2294;51.818;8.484;2022-09-14T03:30:20;15.40;99.90
4564;DHT22;2294;51.818;8.484;2022-09-14T03:32:47;15.20;99.90
4564;DHT22;2294;51.818;8.484;2022-09-14T03:35:15;15.30;99.90
4564;DHT22;2294;51.818;8.484;2022-09-14T03:37:44;15.20;99.90
4564;DHT22;2294;51.818;8.484;2022-09-14T03:40:13;15.20;99.90
4564;DHT22;2294;51.818;8.484;2022-09-14T03:42:41;15.30;99.90
4564;DHT22;2294;51.818;8.484;2022-09-14T03:45:09;15.30;99.90
4564;DHT22;2294;51.818;8.484;2022-09-14T03:47:36;15.30;99.90
4564;DHT22;2294;51.818;8.484;2022-09-14T03:50:03;15.30;99.90
4564;DHT22;2294;51.818;8.484;2022-09-14T03:52:30;15.30;99.90
4564;DHT22;2294;51.818;8.484;2022-09-14T03:54:59;15.30;99.90
4564;DHT22;2294;51.818;8.484;2022-09-14T03:57:26;15.30;99.90
4564;DHT22;2294;51.818;8.484;2022-09-14T03:59:53;15.30;99.90
4564;DHT22;2294;51.818;8.484;2022-09-14T04:02:19;15.30;99.90
4564;DHT22;2294;51.818;8.484;2022-09-14T04:04:46;15.30;99.90
4564;DHT22;2294;51.818;8.484;2022-09-14T04:07:13;15.30;99.90
4564;DHT22;2294;51.818;8.484;2022-09-14T04:09:41;15.30;99.90
4564;DHT22;2294;51.818;8.484;2022-09-14T04:12:09;15.30;99.90
4564;DHT22;2294;51.818;8.484;2022-09-14T04:14:36;15.30;99.90
4564;DHT22;2294;51.818;8.484;2022-09-14T04:17:03;15.30;99.90
4564;DHT22;2294;51.818;8.484;2022-09-14T04:19:30;15.30;99.90
4564;DHT22;2294;51.818;8.484;2022-09-14T04:21:59;15.40;99.90
4564;DHT22;2294;51.818;8.484;2022-09-14T04:24:26;15.30;99.90
4564;DHT22;2294;51.818;8.484;2022-09-14T04:26:53;15.40;99.90
4564;DHT22;2294;51.818;8.484;2022-09-14T04:29:21;15.40;99.90
4564;DHT22;2294;51.818;8.484;2022-09-14T04:31:48;15.40;99.90
4564;DHT22;2294;51.818;8.484;2022-09-14T04:34:15;15.40;99.90
4564;DHT22;2294;51.818;8.484;2022-09-14T04:36:42;15.40;99.90
4564;DHT22;2294;51.818;8.484;2022-09-14T04:39:10;15.40;99.90
4564;DHT22;2294;51.818;8.484;2022-09-14T04:41:38;15.40;99.90
4564;DHT22;2294;51.818;8.484;2022-09-14T04:44:05;15.50;99.90
4564;DHT22;2294;51.818;8.484;2022-09-14T04:46:34;15.50;99.90
4564;DHT22;2294;51.818;8.484;2022-09-14T04:49:01;15.40;99.90
4564;DHT22;2294;51.818;8.484;2022-09-14T04:51:29;15.30;99.90
4564;DHT22;2294;51.818;8.484;2022-09-14T04:53:58;15.30;99.90
4564;DHT22;2294;51.818;8.484;2022-09-14T04:56:27;15.40;99.90
4564;DHT22;2294;51.818;8.484;2022-09-14T04:58:56;15.30;99.90
4564;DHT22;2294;51.818;8.484;2022-09-14T05:01:25;15.40;99.90
4564;DHT22;2294;51.818;8.484;2022-09-14T05:03:54;15.30;99.90
4564;DHT22;2294;51.818;8.484;2022-09-14T05:06:22;15.40;99.90
4564;DHT22;2294;51.818;8.484;2022-09-14T05:08:49;15.30;99.90
4564;DHT22;2294;51.818;8.484;2022-09-14T05:11:18;15.40;99.90
4564;DHT22;2294;51.818;8.484;2022-09-14T05:13:45;15.40;99.90
4564;DHT22;2294;51.818;8.484;2022-09-14T05:16:15;15.40;99.90
4564;DHT22;2294;51.818;8.484;2022-09-14T05:18:42;15.40;99.90
4564;DHT22;2294;51.818;8.484;2022-09-14T05:21:12;15.30;99.90
4564;DHT22;2294;51.818;8.484;2022-09-14T05:23:40;15.20;99.90
4564;DHT22;2294;51.818;8.484;2022-09-14T05:26:08;15.30;99.90
4564;DHT22;2294;51.818;8.484;2022-09-14T05:28:35;15.30;99.90
4564;DHT22;2294;51.818;8.484;2022-09-14T05:31:04;15.30;99.90
4564;DHT22;2294;51.818;8.484;2022-09-14T05:33:32;15.20;99.90
4564;DHT22;2294;51.818;8.484;2022-09-14T05:36:00;15.10;99.90
4564;DHT22;2294;51.818;8.484;2022-09-14T05:38:29;14.70;99.90
4564;DHT22;2294;51.818;8.484;2022-09-14T05:40:56;15.20;99.90
4564;DHT22;2294;51.818;8.484;2022-09-14T05:43:23;15.30;99.90
4564;DHT22;2294;51.818;8.484;2022-09-14T05:45:51;15.30;99.90
4564;DHT22;2294;51.818;8.484;2022-09-14T05:48:18;15.20;99.90
4564;DHT22;2294;51.818;8.484;2022-09-14T05:50:44;15.20;99.90
4564;DHT22;2294;51.818;8.484;2022-09-14T05:53:11;15.00;99.90
4564;DHT22;2294;51.818;8.484;2022-09-14T05:55:42;15.10;99.90
4564;DHT22;2294;51.818;8.484;2022-09-14T05:58:09;15.10;99.90
4564;DHT22;2294;51.818;8.484;2022-09-14T06:00:37;15.10;99.90
4564;DHT22;2294;51.818;8.484;2022-09-14T06:03:04;15.10;99.90
4564;DHT22;2294;51.818;8.484;2022-09-14T06:05:32;15.10;99.90
4564;DHT22;2294;51.818;8.484;2022-09-14T06:08:00;15.20;99.90
4564;DHT22;2294;51.818;8.484;2022-09-14T06:10:27;15.10;99.90
4564;DHT22;2294;51.818;8.484;2022-09-14T06:12:55;15.10;99.90
4564;DHT22;2294;51.818;8.484;2022-09-14T06:15:22;15.10;99.90
4564;DHT22;2294;51.818;8.484;2022-09-14T06:17:50;15.00;99.90
4564;DHT22;2294;51.818;8.484;2022-09-14T06:20:17;14.90;99.90
4564;DHT22;2294;51.818;8.484;2022-09-14T06:22:44;14.90;99.90
4564;DHT22;2294;51.818;8.484;2022-09-14T06:25:11;15.00;99.90
4564;DHT22;2294;51.818;8.484;2022-09-14T06:27:38;14.90;99.90
4564;DHT22;2294;51.818;8.484;2022-09-14T06:30:07;14.80;99.90
4564;DHT22;2294;51.818;8.484;2022-09-14T06:32:34;14.70;99.90
4564;DHT22;2294;51.818;8.484;2022-09-14T06:35:01;14.70;99.90
4564;DHT22;2294;51.818;8.484;2022-09-14T06:37:28;14.60;99.90
4564;DHT22;2294;51.818;8.484;2022-09-14T06:39:55;14.70;99.90
4564;DHT22;2294;51.818;8.484;2022-09-14T06:42:22;14.70;99.90
4564;DHT22;2294;51.818;8.484;2022-09-14T06:44:49;14.80;99.90
4564;DHT22;2294;51.818;8.484;2022-09-14T06:47:17;15.00;99.90
4564;DHT22;2294;51.818;8.484;2022-09-14T06:49:44;15.20;99.90
4564;DHT22;2294;51.818;8.484;2022-09-14T06:52:11;15.10;99.90
4564;DHT22;2294;51.818;8.484;2022-09-14T06:54:37;15.00;99.90
4564;DHT22;2294;51.818;8.484;2022-09-14T06:57:05;15.30;99.90
4564;DHT22;2294;51.818;8.484;2022-09-14T06:59:32;15.40;99.90
4564;DHT22;2294;51.818;8.484;2022-09-14T07:01:59;15.30;99.90
4564;DHT22;2294;51.818;8.484;2022-09-14T07:04:28;15.40;99.90
4564;DHT22;2294;51.818;8.484;2022-09-14T07:06:55;15.40;99.90
4564;DHT22;2294;51.818;8.484;2022-09-14T07:09:22;15.30;99.90
4564;DHT22;2294;51.818;8.484;2022-09-14T07:11:50;15.10;99.90
4564;DHT22;2294;51.818;8.484;2022-09-14T07:14:17;15.20;99.90
4564;DHT22;2294;51.818;8.484;2022-09-14T07:16:44;15.30;99.90
4564;DHT22;2294;51.818;8.484;2022-09-14T07:19:12;15.10;99.90
4564;DHT22;2294;51.818;8.484;2022-09-14T07:21:41;15.10;99.90
4564;DHT22;2294;51.818;8.484;2022-09-14T07:24:10;15.20;99.90
4564;DHT22;2294;51.818;8.484;2022-09-14T07:26:38;15.40;99.90
4564;DHT22;2294;51.818;8.484;2022-09-14T07:29:09;15.50;99.90
4564;DHT22;2294;51.818;8.484;2022-09-14T07:31:38;15.60;99.90
4564;DHT22;2294;51.818;8.484;2022-09-14T07:34:06;15.60;99.90
4564;DHT22;2294;51.818;8.484;2022-09-14T07:36:34;15.60;99.90
4564;DHT22;2294;51.818;8.484;2022-09-14T07:39:03;15.50;99.90
4564;DHT22;2294;51.818;8.484;2022-09-14T07:41:31;15.80;99.90
4564;DHT22;2294;51.818;8.484;2022-09-14T07:44:00;16.10;99.90
4564;DHT22;2294;51.818;8.484;2022-09-14T07:46:29;16.10;99.90
4564;DHT22;2294;51.818;8.484;2022-09-14T07:48:58;15.90;99.90
4564;DHT22;2294;51.818;8.484;2022-09-14T07:51:27;15.70;99.90
4564;DHT22;2294;51.818;8.484;2022-09-14T07:53:54;15.30;99.90
4564;DHT22;2294;51.818;8.484;2022-09-14T07:56:22;15.30;99.90
4564;DHT22;2294;51.818;8.484;2022-09-14T07:58:52;15.60;99.90
4564;DHT22;2294;51.818;8.484;2022-09-14T08:01:21;15.70;99.90
4564;DHT22;2294;51.818;8.484;2022-09-14T08:03:48;15.50;99.90
4564;DHT22;2294;51.818;8.484;2022-09-14T08:06:16;15.70;99.90
4564;DHT22;2294;51.818;8.484;2022-09-14T08:08:46;15.80;99.90
4564;DHT22;2294;51.818;8.484;2022-09-14T08:11:14;15.70;99.90
4564;DHT22;2294;51.818;8.484;2022-09-14T08:13:45;15.70;99.90
4564;DHT22;2294;51.818;8.484;2022-09-14T08:16:12;15.70;99.90
4564;DHT22;2294;51.818;8.484;2022-09-14T08:18:40;15.70;99.90
4564;DHT22;2294;51.818;8.484;2022-09-14T08:21:08;15.80;99.90
4564;DHT22;2294;51.818;8.484;2022-09-14T08:23:36;15.70;99.90
4564;DHT22;2294;51.818;8.484;2022-09-14T08:26:04;16.00;99.90
4564;DHT22;2294;51.818;8.484;2022-09-14T08:28:32;16.30;99.90
4564;DHT22;2294;51.818;8.484;2022-09-14T08:31:06;16.20;99.90
4564;DHT22;2294;51.818;8.484;2022-09-14T08:33:34;16.00;99.90
4564;DHT22;2294;51.818;8.484;2022-09-14T08:36:01;15.70;99.90
4564;DHT22;2294;51.818;8.484;2022-09-14T08:38:29;15.70;99.90
4564;DHT22;2294;51.818;8.484;2022-09-14T08:40:57;16.30;99.90
4564;DHT22;2294;51.818;8.484;2022-09-14T08:43:25;16.30;99.90
4564;DHT22;2294;51.818;8.484;2022-09-14T08:45:58;16.60;99.90
4564;DHT22;2294;51.818;8.484;2022-09-14T08:48:31;16.40;99.90
4564;DHT22;2294;51.818;8.484;2022-09-14T08:51:00;16.60;99.90
4564;DHT22;2294;51.818;8.484;2022-09-14T08:53:29;16.70;99.90
4564;DHT22;2294;51.818;8.484;2022-09-14T08:55:59;16.70;99.90
4564;DHT22;2294;51.818;8.484;2022-09-14T08:58:35;16.50;99.90
4564;DHT22;2294;51.818;8.484;2022-09-14T09:01:11;16.90;99.90
4564;DHT22;2294;51.818;8.484;2022-09-14T09:04:02;17.50;99.90
4564;DHT22;2294;51.818;8.484;2022-09-14T09:06:39;17.50;99.90
4564;DHT22;2294;51.818;8.484;2022-09-14T09:09:12;16.80;99.90
4564;DHT22;2294;51.818;8.484;2022-09-14T09:11:45;16.60;99.90
4564;DHT22;2294;51.818;8.484;2022-09-14T09:14:17;16.60;99.90
4564;DHT22;2294;51.818;8.484;2022-09-14T09:16:47;16.90;99.90
4564;DHT22;2294;51.818;8.484;2022-09-14T09:19:18;17.00;99.90
4564;DHT22;2294;51.818;8.484;2022-09-14T09:21:48;16.60;99.90
4564;DHT22;2294;51.818;8.484;2022-09-14T09:24:23;16.70;99.90
4564;DHT22;2294;51.818;8.484;2022-09-14T09:26:51;16.80;99.90
4564;DHT22;2294;51.818;8.484;2022-09-14T09:29:18;16.70;99.90
4564;DHT22;2294;51.818;8.484;2022-09-14T09:31:49;16.70;99.90
4564;DHT22;2294;51.818;8.484;2022-09-14T09:34:25;16.60;99.90
4564;DHT22;2294;51.818;8.484;2022-09-14T09:36:52;16.60;99.90
4564;DHT22;2294;51.818;8.484;2022-09-14T09:39:21;16.40;99.90
4564;DHT22;2294;51.818;8.484;2022-09-14T09:41:53;16.80;99.90
4564;DHT22;2294;51.818;8.484;2022-09-14T09:44:22;16.60;99.90
4564;DHT22;2294;51.818;8.484;2022-09-14T09:46:52;16.60;99.90
4564;DHT22;2294;51.818;8.484;2022-09-14T09:49:23;16.60;99.90
4564;DHT22;2294;51.818;8.484;2022-09-14T09:51:51;16.60;99.90
4564;DHT22;2294;51.818;8.484;2022-09-14T09:54:23;16.60;99.90
4564;DHT22;2294;51.818;8.484;2022-09-14T09:56:52;16.30;99.90
4564;DHT22;2294;51.818;8.484;2022-09-14T09:59:26;16.50;99.90
4564;DHT22;2294;51.818;8.484;2022-09-14T10:01:54;16.70;99.90
4564;DHT22;2294;51.818;8.484;2022-09-14T10:04:25;16.50;99.90
4564;DHT22;2294;51.818;8.484;2022-09-14T10:06:55;16.60;99.90
4564;DHT22;2294;51.818;8.484;2022-09-14T10:09:24;16.70;99.90
4564;DHT22;2294;51.818;8.484;2022-09-14T10:11:57;16.70;99.90
4564;DHT22;2294;51.818;8.484;2022-09-14T10:14:28;16.80;99.90
4564;DHT22;2294;51.818;8.484;2022-09-14T10:17:05;16.80;99.90
4564;DHT22;2294;51.818;8.484;2022-09-14T10:19:34;16.80;99.90
4564;DHT22;2294;51.818;8.484;2022-09-14T10:22:14;16.80;99.90
4564;DHT22;2294;51.818;8.484;2022-09-14T10:24:52;16.80;99.90
4564;DHT22;2294;51.818;8.484;2022-09-14T10:27:37;16.70;99.90
4564;DHT22;2294;51.818;8.484;2022-09-14T10:30:09;16.50;99.90
4564;DHT22;2294;51.818;8.484;2022-09-14T10:32:38;16.20;99.90
4564;DHT22;2294;51.818;8.484;2022-09-14T10:35:13;16.30;99.90
4564;DHT22;2294;51.818;8.484;2022-09-14T10:37:48;16.30;99.90
4564;DHT22;2294;51.818;8.484;2022-09-14T10:40:19;16.20;99.90
4564;DHT22;2294;51.818;8.484;2022-09-14T10:42:58;16.40;99.90
4564;DHT22;2294;51.818;8.484;2022-09-14T10:45:28;16.00;99.90
4564;DHT22;2294;51.818;8.484;2022-09-14T10:48:10;16.20;99.90
4564;DHT22;2294;51.818;8.484;2022-09-14T10:50:51;16.30;99.90
4564;DHT22;2294;51.818;8.484;2022-09-14T10:56:14;16.30;99.90
4564;DHT22;2294;51.818;8.484;2022-09-14T10:59:06;16.60;99.90
4564;DHT22;2294;51.818;8.484;2022-09-14T11:01:54;16.50;99.90
4564;DHT22;2294;51.818;8.484;2022-09-14T11:04:43;16.60;99.90
4564;DHT22;2294;51.818;8.484;2022-09-14T11:07:19;16.70;99.90
4564;DHT22;2294;51.818;8.484;2022-09-14T11:09:55;16.60;99.90
4564;DHT22;2294;51.818;8.484;2022-09-14T11:12:33;16.70;99.90
4564;DHT22;2294;51.818;8.484;2022-09-14T11:15:07;16.60;99.90
4564;DHT22;2294;51.818;8.484;2022-09-14T11:17:52;16.60;99.90
4564;DHT22;2294;51.818;8.484;2022-09-14T11:20:27;16.60;99.90
4564;DHT22;2294;51.818;8.484;2022-09-14T11:23:06;16.60;99.90
4564;DHT22;2294;51.818;8.484;2022-09-14T11:25:43;16.50;99.90
4564;DHT22;2294;51.818;8.484;2022-09-14T11:28:17;16.60;99.90
4564;DHT22;2294;51.818;8.484;2022-09-14T11:30:49;16.40;99.90
4564;DHT22;2294;51.818;8.484;2022-09-14T11:33:21;16.40;99.90
4564;DHT22;2294;51.818;8.484;2022-09-14T11:35:53;16.40;99.90
4564;DHT22;2294;51.818;8.484;2022-09-14T11:38:27;16.20;99.90
4564;DHT22;2294;51.818;8.484;2022-09-14T11:40:59;16.40;99.90
4564;DHT22;2294;51.818;8.484;2022-09-14T11:43:29;16.30;99.90
4564;DHT22;2294;51.818;8.484;2022-09-14T11:46:06;16.20;99.90
4564;DHT22;2294;51.818;8.484;2022-09-14T11:48:38;16.20;99.90
4564;DHT22;2294;51.818;8.484;2022-09-14T11:51:11;16.20;99.90
4564;DHT22;2294;51.818;8.484;2022-09-14T11:53:41;16.00;99.90
4564;DHT22;2294;51.818;8.484;2022-09-14T11:56:19;15.70;99.90
4564;DHT22;2294;51.818;8.484;2022-09-14T11:58:49;15.60;99.90
4564;DHT22;2294;51.818;8.484;2022-09-14T12:01:31;15.60;99.90
4564;DHT22;2294;51.818;8.484;2022-09-14T12:04:09;15.60;99.90
4564;DHT22;2294;51.818;8.484;2022-09-14T12:06:51;15.60;99.90
4564;DHT22;2294;51.818;8.484;2022-09-14T12:09:59;15.90;99.90
4564;DHT22;2294;51.818;8.484;2022-09-14T12:12:41;15.90;99.90
4564;DHT22;2294;51.818;8.484;2022-09-14T12:15:31;15.60;99.90
4564;DHT22;2294;51.818;8.484;2022-09-14T12:18:20;15.50;99.90
4564;DHT22;2294;51.818;8.484;2022-09-14T12:20:48;15.50;99.90
4564;DHT22;2294;51.818;8.484;2022-09-14T12:23:24;15.80;99.90
4564;DHT22;2294;51.818;8.484;2022-09-14T12:26:00;15.80;99.90
4564;DHT22;2294;51.818;8.484;2022-09-14T12:28:38;15.80;99.90
4564;DHT22;2294;51.818;8.484;2022-09-14T12:31:11;15.60;99.90
4564;DHT22;2294;51.818;8.484;2022-09-14T12:33:43;15.70;99.90
4564;DHT22;2294;51.818;8.484;2022-09-14T12:36:55;15.70;99.90
4564;DHT22;2294;51.818;8.484;2022-09-14T12:39:23;15.70;99.90
4564;DHT22;2294;51.818;8.484;2022-09-14T12:42:01;16.00;99.90
4564;DHT22;2294;51.818;8.484;2022-09-14T12:44:31;15.90;99.90
4564;DHT22;2294;51.818;8.484;2022-09-14T12:47:46;15.90;99.90
4564;DHT22;2294;51.818;8.484;2022-09-14T12:50:16;15.90;99.90
4564;DHT22;2294;51.818;8.484;2022-09-14T12:52:55;16.00;99.90
4564;DHT22;2294;51.818;8.484;2022-09-14T12:55:37;16.20;99.90
4564;DHT22;2294;51.818;8.484;2022-09-14T12:58:17;16.40;99.90
4564;DHT22;2294;51.818;8.484;2022-09-14T13:00:53;16.40;99.90
4564;DHT22;2294;51.818;8.484;2022-09-14T13:03:41;16.50;99.90
4564;DHT22;2294;51.818;8.484;2022-09-14T13:06:11;16.30;99.90
4564;DHT22;2294;51.818;8.484;2022-09-14T13:08:43;16.10;99.90
4564;DHT22;2294;51.818;8.484;2022-09-14T13:11:19;16.30;99.90
4564;DHT22;2294;51.818;8.484;2022-09-14T13:13:48;16.40;99.90
4564;DHT22;2294;51.818;8.484;2022-09-14T13:16:18;16.30;99.90
4564;DHT22;2294;51.818;8.484;2022-09-14T13:18:47;16.50;99.90
4564;DHT22;2294;51.818;8.484;2022-09-14T13:21:18;16.60;99.90
4564;DHT22;2294;51.818;8.484;2022-09-14T13:23:46;16.60;99.90
4564;DHT22;2294;51.818;8.484;2022-09-14T13:26:17;16.60;99.90
4564;DHT22;2294;51.818;8.484;2022-09-14T13:28:48;16.50;99.90
4564;DHT22;2294;51.818;8.484;2022-09-14T13:31:17;16.50;99.90
4564;DHT22;2294;51.818;8.484;2022-09-14T13:33:48;16.60;99.90
4564;DHT22;2294;51.818;8.484;2022-09-14T13:36:17;16.70;99.90
4564;DHT22;2294;51.818;8.484;2022-09-14T13:38:46;16.40;99.90
4564;DHT22;2294;51.818;8.484;2022-09-14T13:41:15;16.30;99.90
4564;DHT22;2294;51.818;8.484;2022-09-14T13:43:44;16.00;99.90
4564;DHT22;2294;51.818;8.484;2022-09-14T13:46:13;16.20;99.90
4564;DHT22;2294;51.818;8.484;2022-09-14T13:48:41;16.40;99.90
4564;DHT22;2294;51.818;8.484;2022-09-14T13:51:09;16.10;99.90
4564;DHT22;2294;51.818;8.484;2022-09-14T13:53:40;15.90;99.90
4564;DHT22;2294;51.818;8.484;2022-09-14T13:56:22;15.90;99.90
4564;DHT22;2294;51.818;8.484;2022-09-14T13:59:14;15.70;99.90
4564;DHT22;2294;51.818;8.484;2022-09-14T14:01:53;16.10;99.90
4564;DHT22;2294;51.818;8.484;2022-09-14T14:04:27;16.00;99.90
4564;DHT22;2294;51.818;8.484;2022-09-14T14:07:02;16.10;99.90
4564;DHT22;2294;51.818;8.484;2022-09-14T14:09:39;16.30;99.90
4564;DHT22;2294;51.818;8.484;2022-09-14T14:12:09;16.30;99.90
4564;DHT22;2294;51.818;8.484;2022-09-14T14:14:36;16.00;99.90
4564;DHT22;2294;51.818;8.484;2022-09-14T14:17:25;16.10;99.90
4564;DHT22;2294;51.818;8.484;2022-09-14T14:19:58;16.10;99.90
4564;DHT22;2294;51.818;8.484;2022-09-14T14:22:27;16.10;99.90
4564;DHT22;2294;51.818;8.484;2022-09-14T14:24:54;16.10;99.90
4564;DHT22;2294;51.818;8.484;2022-09-14T14:27:29;16.20;99.90
4564;DHT22;2294;51.818;8.484;2022-09-14T14:29:57;16.00;99.90
4564;DHT22;2294;51.818;8.484;2022-09-14T14:32:25;15.70;99.90
4564;DHT22;2294;51.818;8.484;2022-09-14T14:34:53;15.60;99.90
4564;DHT22;2294;51.818;8.484;2022-09-14T14:37:21;15.60;99.90
4564;DHT22;2294;51.818;8.484;2022-09-14T14:39:48;15.90;99.90
4564;DHT22;2294;51.818;8.484;2022-09-14T14:42:15;16.10;99.90
4564;DHT22;2294;51.818;8.484;2022-09-14T14:44:43;16.10;99.90
4564;DHT22;2294;51.818;8.484;2022-09-14T14:47:11;16.10;99.90
4564;DHT22;2294;51.818;8.484;2022-09-14T14:49:40;16.00;99.90
4564;DHT22;2294;51.818;8.484;2022-09-14T14:52:08;15.80;99.90
4564;DHT22;2294;51.818;8.484;2022-09-14T14:54:35;15.60;99.90
4564;DHT22;2294;51.818;8.484;2022-09-14T14:57:02;15.70;99.90
4564;DHT22;2294;51.818;8.484;2022-09-14T14:59:29;16.00;99.90
4564;DHT22;2294;51.818;8.484;2022-09-14T15:01:57;16.10;99.90
4564;DHT22;2294;51.818;8.484;2022-09-14T15:04:24;16.10;99.90
4564;DHT22;2294;51.818;8.484;2022-09-14T15:06:53;16.20;99.90
4564;DHT22;2294;51.818;8.484;2022-09-14T15:09:21;16.20;99.90
4564;DHT22;2294;51.818;8.484;2022-09-14T15:11:50;16.20;99.90
4564;DHT22;2294;51.818;8.484;2022-09-14T15:14:20;16.20;99.90
4564;DHT22;2294;51.818;8.484;2022-09-14T15:16:47;16.30;99.90
4564;DHT22;2294;51.818;8.484;2022-09-14T15:19:14;16.00;99.90
4564;DHT22;2294;51.818;8.484;2022-09-14T15:21:42;15.90;99.90
4564;DHT22;2294;51.818;8.484;2022-09-14T15:24:11;15.70;99.90
4564;DHT22;2294;51.818;8.484;2022-09-14T15:26:38;15.80;99.90
4564;DHT22;2294;51.818;8.484;2022-09-14T15:29:05;16.00;99.90
4564;DHT22;2294;51.818;8.484;2022-09-14T15:31:33;15.80;99.90
4564;DHT22;2294;51.818;8.484;2022-09-14T15:34:00;16.00;99.90
4564;DHT22;2294;51.818;8.484;2022-09-14T15:36:35;15.90;99.90
4564;DHT22;2294;51.818;8.484;2022-09-14T15:39:02;15.80;99.90
4564;DHT22;2294;51.818;8.484;2022-09-14T15:41:30;15.60;99.90
4564;DHT22;2294;51.818;8.484;2022-09-14T15:43:57;15.70;99.90
4564;DHT22;2294;51.818;8.484;2022-09-14T15:46:24;15.90;99.90
4564;DHT22;2294;51.818;8.484;2022-09-14T15:48:51;15.80;99.90
4564;DHT22;2294;51.818;8.484;2022-09-14T15:51:18;15.80;99.90
4564;DHT22;2294;51.818;8.484;2022-09-14T15:53:45;15.70;99.90
4564;DHT22;2294;51.818;8.484;2022-09-14T15:56:14;15.80;99.90
4564;DHT22;2294;51.818;8.484;2022-09-14T15:58:42;16.00;99.90
4564;DHT22;2294;51.818;8.484;2022-09-14T16:01:10;15.80;99.90
4564;DHT22;2294;51.818;8.484;2022-09-14T16:03:37;15.80;99.90
4564;DHT22;2294;51.818;8.484;2022-09-14T16:06:07;15.80;99.90
4564;DHT22;2294;51.818;8.484;2022-09-14T16:08:34;15.90;99.90
4564;DHT22;2294;51.818;8.484;2022-09-14T16:11:02;15.70;99.90
4564;DHT22;2294;51.818;8.484;2022-09-14T16:13:29;15.20;99.90
4564;DHT22;2294;51.818;8.484;2022-09-14T16:16:03;15.10;99.90
4564;DHT22;2294;51.818;8.484;2022-09-14T16:18:30;15.20;99.90
4564;DHT22;2294;51.818;8.484;2022-09-14T16:21:03;15.30;99.90
4564;DHT22;2294;51.818;8.484;2022-09-14T16:23:31;15.30;99.90
4564;DHT22;2294;51.818;8.484;2022-09-14T16:25:58;15.30;99.90
4564;DHT22;2294;51.818;8.484;2022-09-14T16:28:26;15.30;99.90
4564;DHT22;2294;51.818;8.484;2022-09-14T16:31:04;15.40;99.90